sensor_id;sensor_type;location;lat;lon;timestamp;pressure;altitude;pressure_sealevel;temperature;humidity
54882;BME280;40775;51.448;4.742;2023-08-01T00:02:20;99977.66;;;17.41;100.00
54882;BME280;40775;51.448;4.742;2023-08-01T00:04:47;99968.91;;;17.38;100.00
54882;BME280;40775;51.448;4.742;2023-08-01T00:07:14;99968.00;;;17.39;100.00
54882;BME280;40775;51.448;4.742;2023-08-01T00:09:41;99964.56;;;17.34;100.00
54882;BME280;40775;51.448;4.742;2023-08-01T00:12:08;99954.00;;;17.32;100.00
54882;BME280;40775;51.448;4.742;2023-08-01T00:14:36;99955.78;;;17.32;100.00
54882;BME280;40775;51.448;4.742;2023-08-01T00:17:03;99947.91;;;17.27;100.00
54882;BME280;40775;51.448;4.742;2023-08-01T00:19:30;99947.03;;;17.25;100.00
54882;BME280;40775;51.448;4.742;2023-08-01T00:21:57;99947.91;;;17.25;100.00
54882;BME280;40775;51.448;4.742;2023-08-01T00:24:24;99947.19;;;17.19;100.00
54882;BME280;40775;51.448;4.742;2023-08-01T00:26:51;99953.41;;;17.18;100.00
54882;BME280;40775;51.448;4.742;2023-08-01T00:29:22;99956.13;;;17.15;100.00
54882;BME280;40775;51.448;4.742;2023-08-01T00:31:49;99952.72;;;17.08;100.00
54882;BME280;40775;51.448;4.742;2023-08-01T00:34:16;99945.63;;;17.09;100.00
54882;BME280;40775;51.448;4.742;2023-08-01T00:36:43;99949.19;;;17.08;100.00
54882;BME280;40775;51.448;4.742;2023-08-01T00:39:10;99947.44;;;17.07;100.00
54882;BME280;40775;51.448;4.742;2023-08-01T00:41:38;99951.91;;;17.05;100.00
54882;BME280;40775;51.448;4.742;2023-08-01T00:44:05;99950.25;;;17.01;100.00
54882;BME280;40775;51.448;4.742;2023-08-01T00:46:32;99945.84;;;16.99;100.00
54882;BME280;40775;51.448;4.742;2023-08-01T00:48:59;99950.28;;;16.97;100.00
54882;BME280;40775;51.448;4.742;2023-08-01T00:51:27;99948.53;;;16.96;100.00
54882;BME280;40775;51.448;4.742;2023-08-01T00:53:56;99950.34;;;16.94;100.00
54882;BME280;40775;51.448;4.742;2023-08-01T00:56:23;99956.47;;;16.96;100.00
54882;BME280;40775;51.448;4.742;2023-08-01T00:58:50;99940.56;;;16.96;100.00
54882;BME280;40775;51.448;4.742;2023-08-01T01:01:17;99949.41;;;16.97;100.00
54882;BME280;40775;51.448;4.742;2023-08-01T01:03:45;99945.03;;;16.94;100.00
54882;BME280;40775;51.448;4.742;2023-08-01T01:06:44;99949.44;;;16.95;100.00
54882;BME280;40775;51.448;4.742;2023-08-01T01:09:18;99940.63;;;16.93;100.00
54882;BME280;40775;51.448;4.742;2023-08-01T01:11:46;99943.28;;;16.93;100.00
54882;BME280;40775;51.448;4.742;2023-08-01T01:14:14;99948.59;;;16.93;100.00
54882;BME280;40775;51.448;4.742;2023-08-01T01:16:41;99959.19;;;16.93;100.00
54882;BME280;40775;51.448;4.742;2023-08-01T01:19:09;99941.50;;;16.94;100.00
54882;BME280;40775;51.448;4.742;2023-08-01T01:21:39;99945.03;;;16.94;100.00
54882;BME280;40775;51.448;4.742;2023-08-01T01:24:10;99942.44;;;16.91;100.00
54882;BME280;40775;51.448;4.742;2023-08-01T01:26:38;99934.50;;;16.91;100.00
54882;BME280;40775;51.448;4.742;2023-08-01T01:29:07;99930.19;;;16.86;100.00
54882;BME280;40775;51.448;4.742;2023-08-01T01:31:36;99931.91;;;16.88;100.00
54882;BME280;40775;51.448;4.742;2023-08-01T01:34:03;99933.66;;;16.89;100.00
54882;BME280;40775;51.448;4.742;2023-08-01T01:36:31;99930.16;;;16.87;100.00
54882;BME280;40775;51.448;4.742;2023-08-01T01:38:58;99917.88;;;16.83;100.00
54882;BME280;40775;51.448;4.742;2023-08-01T01:41:25;99922.31;;;16.83;100.00
54882;BME280;40775;51.448;4.742;2023-08-01T01:43:52;99926.72;;;16.82;100.00
54882;BME280;40775;51.448;4.742;2023-08-01T01:46:19;99921.50;;;16.79;100.00
54882;BME280;40775;51.448;4.742;2023-08-01T01:48:46;99926.78;;;16.79;100.00
54882;BME280;40775;51.448;4.742;2023-08-01T01:51:13;99929.44;;;16.79;100.00
54882;BME280;40775;51.448;4.742;2023-08-01T01:53:40;99933.78;;;16.83;100.00
54882;BME280;40775;51.448;4.742;2023-08-01T01:56:07;99937.34;;;16.82;100.00
54882;BME280;40775;51.448;4.742;2023-08-01T01:58:34;99924.13;;;16.81;100.00
54882;BME280;40775;51.448;4.742;2023-08-01T02:01:01;99930.25;;;16.83;100.00
54882;BME280;40775;51.448;4.742;2023-08-01T02:03:28;99925.88;;;16.80;100.00
54882;BME280;40775;51.448;4.742;2023-08-01T02:05:55;99930.34;;;16.78;100.00
54882;BME280;40775;51.448;4.742;2023-08-01T02:08:22;99925.06;;;16.78;100.00
54882;BME280;40775;51.448;4.742;2023-08-01T02:10:49;99922.41;;;16.78;100.00
54882;BME280;40775;51.448;4.742;2023-08-01T02:13:16;99915.41;;;16.74;100.00
54882;BME280;40775;51.448;4.742;2023-08-01T02:15:43;99928.59;;;16.77;100.00
54882;BME280;40775;51.448;4.742;2023-08-01T02:18:10;99924.25;;;16.75;100.00
54882;BME280;40775;51.448;4.742;2023-08-01T02:20:37;99926.03;;;16.74;100.00
54882;BME280;40775;51.448;4.742;2023-08-01T02:23:04;99926.06;;;16.73;100.00
54882;BME280;40775;51.448;4.742;2023-08-01T02:25:31;99925.13;;;16.75;100.00
54882;BME280;40775;51.448;4.742;2023-08-01T02:27:58;99926.88;;;16.75;100.00
54882;BME280;40775;51.448;4.742;2023-08-01T02:30:25;99926.88;;;16.76;100.00
54882;BME280;40775;51.448;4.742;2023-08-01T02:32:52;99932.19;;;16.75;100.00
54882;BME280;40775;51.448;4.742;2023-08-01T02:35:19;99930.38;;;16.77;100.00
54882;BME280;40775;51.448;4.742;2023-08-01T02:37:46;99931.25;;;16.77;100.00
54882;BME280;40775;51.448;4.742;2023-08-01T02:40:13;99925.09;;;16.77;100.00
54882;BME280;40775;51.448;4.742;2023-08-01T02:42:40;99925.03;;;16.80;100.00
54882;BME280;40775;51.448;4.742;2023-08-01T02:45:07;99931.25;;;16.77;100.00
54882;BME280;40775;51.448;4.742;2023-08-01T02:47:34;99930.34;;;16.78;100.00
54882;BME280;40775;51.448;4.742;2023-08-01T02:50:01;99935.72;;;16.75;100.00
54882;BME280;40775;51.448;4.742;2023-08-01T02:52:28;99938.31;;;16.78;100.00
54882;BME280;40775;51.448;4.742;2023-08-01T02:54:56;99935.78;;;16.72;100.00
54882;BME280;40775;51.448;4.742;2023-08-01T02:57:23;99932.22;;;16.73;100.00
54882;BME280;40775;51.448;4.742;2023-08-01T02:59:50;99937.56;;;16.70;100.00
54882;BME280;40775;51.448;4.742;2023-08-01T03:02:17;99932.25;;;16.70;100.00
54882;BME280;40775;51.448;4.742;2023-08-01T03:04:44;99939.28;;;16.74;100.00
54882;BME280;40775;51.448;4.742;2023-08-01T03:07:13;99939.28;;;16.74;100.00
54882;BME280;40775;51.448;4.742;2023-08-01T03:09:40;99934.03;;;16.71;100.00
54882;BME280;40775;51.448;4.742;2023-08-01T03:12:09;99944.63;;;16.71;100.00
54882;BME280;40775;51.448;4.742;2023-08-01T03:14:36;99932.25;;;16.70;100.00
54882;BME280;40775;51.448;4.742;2023-08-01T03:17:03;99931.44;;;16.66;100.00
54882;BME280;40775;51.448;4.742;2023-08-01T03:19:30;99929.69;;;16.64;100.00
54882;BME280;40775;51.448;4.742;2023-08-01T03:21:57;99949.13;;;16.64;100.00
54882;BME280;40775;51.448;4.742;2023-08-01T03:24:24;99948.25;;;16.64;100.00
54882;BME280;40775;51.448;4.742;2023-08-01T03:26:51;99958.81;;;16.65;100.00
54882;BME280;40775;51.448;4.742;2023-08-01T03:29:18;99944.75;;;16.62;100.00
54882;BME280;40775;51.448;4.742;2023-08-01T03:31:45;99942.94;;;16.64;100.00
54882;BME280;40775;51.448;4.742;2023-08-01T03:34:12;99943.03;;;16.59;100.00
54882;BME280;40775;51.448;4.742;2023-08-01T03:36:39;99946.56;;;16.60;100.00
54882;BME280;40775;51.448;4.742;2023-08-01T03:39:07;99941.25;;;16.60;100.00
54882;BME280;40775;51.448;4.742;2023-08-01T03:41:36;99942.16;;;16.59;100.00
54882;BME280;40775;51.448;4.742;2023-08-01T03:44:04;99936.03;;;16.57;100.00
54882;BME280;40775;51.448;4.742;2023-08-01T03:46:31;99939.50;;;16.59;100.00
54882;BME280;40775;51.448;4.742;2023-08-01T03:48:58;99936.81;;;16.62;100.00
54882;BME280;40775;51.448;4.742;2023-08-01T03:51:25;99935.97;;;16.60;100.00
54882;BME280;40775;51.448;4.742;2023-08-01T03:53:52;99943.06;;;16.58;100.00
54882;BME280;40775;51.448;4.742;2023-08-01T03:56:38;99945.66;;;16.61;100.00
54882;BME280;40775;51.448;4.742;2023-08-01T03:59:06;99950.94;;;16.62;100.00
54882;BME280;40775;51.448;4.742;2023-08-01T04:01:33;99944.81;;;16.59;100.00
54882;BME280;40775;51.448;4.742;2023-08-01T04:04:01;99946.63;;;16.57;100.00
54882;BME280;40775;51.448;4.742;2023-08-01T04:06:28;99954.50;;;16.60;100.00
54882;BME280;40775;51.448;4.742;2023-08-01T04:08:55;99948.34;;;16.59;100.00
54882;BME280;40775;51.448;4.742;2023-08-01T04:11:23;99951.00;;;16.58;100.00
54882;BME280;40775;51.448;4.742;2023-08-01T04:13:52;99948.38;;;16.58;100.00
54882;BME280;40775;51.448;4.742;2023-08-01T04:16:19;99953.63;;;16.59;100.00
54882;BME280;40775;51.448;4.742;2023-08-01T04:18:46;99957.19;;;16.58;100.00
54882;BME280;40775;51.448;4.742;2023-08-01T04:21:14;99946.63;;;16.57;100.00
54882;BME280;40775;51.448;4.742;2023-08-01T04:23:42;99954.59;;;16.55;100.00
54882;BME280;40775;51.448;4.742;2023-08-01T04:26:09;99946.69;;;16.54;100.00
54882;BME280;40775;51.448;4.742;2023-08-01T04:28:36;99951.91;;;16.57;100.00
54882;BME280;40775;51.448;4.742;2023-08-01T04:31:03;99951.03;;;16.56;100.00
54882;BME280;40775;51.448;4.742;2023-08-01T04:33:30;99952.81;;;16.56;100.00
54882;BME280;40775;51.448;4.742;2023-08-01T04:35:57;99948.44;;;16.55;100.00
54882;BME280;40775;51.448;4.742;2023-08-01T04:38:24;99946.78;;;16.49;100.00
54882;BME280;40775;51.448;4.742;2023-08-01T04:40:52;99958.25;;;16.50;100.00
54882;BME280;40775;51.448;4.742;2023-08-01T04:43:20;99951.19;;;16.49;100.00
54882;BME280;40775;51.448;4.742;2023-08-01T04:45:47;99951.22;;;16.47;100.00
54882;BME280;40775;51.448;4.742;2023-08-01T04:48:14;99949.50;;;16.43;100.00
54882;BME280;40775;51.448;4.742;2023-08-01T04:50:41;99957.44;;;16.46;100.00
54882;BME280;40775;51.448;4.742;2023-08-01T04:53:08;99953.00;;;16.47;100.00
54882;BME280;40775;51.448;4.742;2023-08-01T04:55:35;99946.78;;;16.48;100.00
54882;BME280;40775;51.448;4.742;2023-08-01T04:58:02;99956.50;;;16.49;100.00
54882;BME280;40775;51.448;4.742;2023-08-01T05:00:29;99957.41;;;16.48;100.00
54882;BME280;40775;51.448;4.742;2023-08-01T05:02:56;99951.19;;;16.49;100.00
54882;BME280;40775;51.448;4.742;2023-08-01T05:05:23;99956.50;;;16.49;100.00
54882;BME280;40775;51.448;4.742;2023-08-01T05:07:50;99964.31;;;16.55;100.00
54882;BME280;40775;51.448;4.742;2023-08-01T05:10:17;99966.06;;;16.56;100.00
54882;BME280;40775;51.448;4.742;2023-08-01T05:12:44;99960.75;;;16.57;100.00
54882;BME280;40775;51.448;4.742;2023-08-01T05:15:11;99961.69;;;16.55;100.00
54882;BME280;40775;51.448;4.742;2023-08-01T05:17:39;99960.72;;;16.59;100.00
54882;BME280;40775;51.448;4.742;2023-08-01T05:20:08;99972.16;;;16.61;100.00
54882;BME280;40775;51.448;4.742;2023-08-01T05:22:35;99967.69;;;16.63;100.00
54882;BME280;40775;51.448;4.742;2023-08-01T05:25:03;99969.50;;;16.61;100.00
54882;BME280;40775;51.448;4.742;2023-08-01T05:27:31;99965.94;;;16.62;100.00
54882;BME280;40775;51.448;4.742;2023-08-01T05:29:58;99969.41;;;16.67;100.00
54882;BME280;40775;51.448;4.742;2023-08-01T05:32:25;99969.41;;;16.67;100.00
54882;BME280;40775;51.448;4.742;2023-08-01T05:34:52;99976.44;;;16.69;100.00
54882;BME280;40775;51.448;4.742;2023-08-01T05:37:19;99978.19;;;16.72;100.00
54882;BME280;40775;51.448;4.742;2023-08-01T05:39:46;99977.25;;;16.75;100.00
54882;BME280;40775;51.448;4.742;2023-08-01T05:42:13;99976.38;;;16.74;100.00
54882;BME280;40775;51.448;4.742;2023-08-01T05:44:40;99971.91;;;16.76;100.00
54882;BME280;40775;51.448;4.742;2023-08-01T05:47:07;100008.56;;;18.22;100.00
54882;BME280;40775;51.448;4.742;2023-08-01T05:49:34;100007.31;;;19.05;100.00
54882;BME280;40775;51.448;4.742;2023-08-01T05:52:01;99996.03;;;19.59;100.00
54882;BME280;40775;51.448;4.742;2023-08-01T05:54:28;99982.16;;;20.05;100.00
54882;BME280;40775;51.448;4.742;2023-08-01T05:56:55;99971.53;;;20.32;100.00
54882;BME280;40775;51.448;4.742;2023-08-01T05:59:22;99959.44;;;20.48;100.00
54882;BME280;40775;51.448;4.742;2023-08-01T06:01:49;99951.88;;;20.61;100.00
54882;BME280;40775;51.448;4.742;2023-08-01T06:04:16;99938.22;;;20.70;100.00
54882;BME280;40775;51.448;4.742;2023-08-01T06:06:43;99944.81;;;20.85;100.00
54882;BME280;40775;51.448;4.742;2023-08-01T06:09:10;99942.44;;;21.01;100.00
54882;BME280;40775;51.448;4.742;2023-08-01T06:11:37;99938.16;;;20.96;100.00
54882;BME280;40775;51.448;4.742;2023-08-01T06:14:04;99934.50;;;20.99;100.00
54882;BME280;40775;51.448;4.742;2023-08-01T06:16:31;99932.31;;;21.10;100.00
54882;BME280;40775;51.448;4.742;2023-08-01T06:18:58;99936.44;;;21.19;100.00
54882;BME280;40775;51.448;4.742;2023-08-01T06:21:25;99940.91;;;21.18;100.00
54882;BME280;40775;51.448;4.742;2023-08-01T06:23:52;99952.88;;;21.32;100.00
54882;BME280;40775;51.448;4.742;2023-08-01T06:26:19;99962.63;;;21.33;100.00
54882;BME280;40775;51.448;4.742;2023-08-01T06:28:46;99952.75;;;21.35;100.00
54882;BME280;40775;51.448;4.742;2023-08-01T06:31:13;99958.03;;;21.36;100.00
54882;BME280;40775;51.448;4.742;2023-08-01T06:33:40;99949.44;;;21.28;100.00
54882;BME280;40775;51.448;4.742;2023-08-01T06:36:08;99949.50;;;21.26;100.00
54882;BME280;40775;51.448;4.742;2023-08-01T06:38:35;99959.94;;;21.33;100.00
54882;BME280;40775;51.448;4.742;2023-08-01T06:41:02;99945.31;;;21.19;100.00
54882;BME280;40775;51.448;4.742;2023-08-01T06:43:29;99948.63;;;21.26;100.00
54882;BME280;40775;51.448;4.742;2023-08-01T06:45:56;99953.88;;;21.29;100.00
54882;BME280;40775;51.448;4.742;2023-08-01T06:48:23;99947.22;;;21.16;100.00
54882;BME280;40775;51.448;4.742;2023-08-01T06:50:50;99946.84;;;21.26;100.00
54882;BME280;40775;51.448;4.742;2023-08-01T06:53:18;99966.09;;;21.35;100.00
54882;BME280;40775;51.448;4.742;2023-08-01T06:55:45;99974.47;;;21.49;100.00
54882;BME280;40775;51.448;4.742;2023-08-01T06:58:12;99978.00;;;21.49;100.00
54882;BME280;40775;51.448;4.742;2023-08-01T07:00:39;99977.81;;;21.54;100.00
54882;BME280;40775;51.448;4.742;2023-08-01T07:03:06;99976.63;;;21.39;100.00
54882;BME280;40775;51.448;4.742;2023-08-01T07:05:33;99980.06;;;21.43;100.00
54882;BME280;40775;51.448;4.742;2023-08-01T07:08:00;99985.28;;;21.46;100.00
54882;BME280;40775;51.448;4.742;2023-08-01T07:10:27;99991.66;;;21.42;100.00
54882;BME280;40775;51.448;4.742;2023-08-01T07:12:54;99977.66;;;21.35;100.00
54882;BME280;40775;51.448;4.742;2023-08-01T07:15:21;99985.50;;;21.40;100.00
54882;BME280;40775;51.448;4.742;2023-08-01T07:17:48;99981.09;;;21.39;100.00
54882;BME280;40775;51.448;4.742;2023-08-01T07:20:15;99983.41;;;21.48;100.00
54882;BME280;40775;51.448;4.742;2023-08-01T07:22:42;99981.50;;;21.51;100.00
54882;BME280;40775;51.448;4.742;2023-08-01T07:25:09;99997.22;;;21.59;100.00
54882;BME280;40775;51.448;4.742;2023-08-01T07:27:38;99992.88;;;21.56;100.00
54882;BME280;40775;51.448;4.742;2023-08-01T07:30:06;99990.69;;;21.44;100.00
54882;BME280;40775;51.448;4.742;2023-08-01T07:32:33;99990.56;;;21.47;100.00
54882;BME280;40775;51.448;4.742;2023-08-01T07:35:00;99995.38;;;21.38;100.00
54882;BME280;40775;51.448;4.742;2023-08-01T07:37:30;99992.47;;;21.44;100.00
54882;BME280;40775;51.448;4.742;2023-08-01T07:39:57;99992.22;;;21.50;100.00
54882;BME280;40775;51.448;4.742;2023-08-01T07:42:24;99987.06;;;21.45;100.00
54882;BME280;40775;51.448;4.742;2023-08-01T07:44:51;100000.19;;;21.51;100.00
54882;BME280;40775;51.448;4.742;2023-08-01T07:47:18;100001.75;;;21.57;100.00
54882;BME280;40775;51.448;4.742;2023-08-01T07:49:45;100004.66;;;21.51;100.00
54882;BME280;40775;51.448;4.742;2023-08-01T07:52:12;100008.03;;;21.56;100.00
54882;BME280;40775;51.448;4.742;2023-08-01T07:54:38;100004.47;;;21.55;100.00
54882;BME280;40775;51.448;4.742;2023-08-01T07:57:06;100002.78;;;21.53;100.00
54882;BME280;40775;51.448;4.742;2023-08-01T07:59:33;99994.03;;;21.49;100.00
54882;BME280;40775;51.448;4.742;2023-08-01T08:02:00;100004.09;;;21.43;100.00
54882;BME280;40775;51.448;4.742;2023-08-01T08:04:27;100011.22;;;21.42;100.00
54882;BME280;40775;51.448;4.742;2023-08-01T08:06:54;99999.69;;;21.42;100.00
54882;BME280;40775;51.448;4.742;2023-08-01T08:09:21;100003.97;;;21.46;100.00
54882;BME280;40775;51.448;4.742;2023-08-01T08:11:51;100003.22;;;21.42;100.00
54882;BME280;40775;51.448;4.742;2023-08-01T08:14:18;100006.00;;;21.39;100.00
54882;BME280;40775;51.448;4.742;2023-08-01T08:16:48;100005.19;;;21.37;100.00
54882;BME280;40775;51.448;4.742;2023-08-01T08:19:15;100013.84;;;21.44;100.00
54882;BME280;40775;51.448;4.742;2023-08-01T08:21:42;100014.59;;;21.47;100.00
54882;BME280;40775;51.448;4.742;2023-08-01T08:24:09;100012.78;;;21.48;100.00
54882;BME280;40775;51.448;4.742;2023-08-01T08:26:37;100018.06;;;21.49;100.00
54882;BME280;40775;51.448;4.742;2023-08-01T08:29:07;100024.09;;;21.54;100.00
54882;BME280;40775;51.448;4.742;2023-08-01T08:31:34;100018.66;;;21.57;100.00
54882;BME280;40775;51.448;4.742;2023-08-01T08:34:01;100019.50;;;21.58;100.00
54882;BME280;40775;51.448;4.742;2023-08-01T08:36:28;100020.44;;;21.57;100.00
54882;BME280;40775;51.448;4.742;2023-08-01T08:38:55;100022.25;;;21.56;100.00
54882;BME280;40775;51.448;4.742;2023-08-01T08:41:26;100033.75;;;21.58;100.00
54882;BME280;40775;51.448;4.742;2023-08-01T08:43:56;100031.94;;;21.59;100.00
54882;BME280;40775;51.448;4.742;2023-08-01T08:46:29;100037.28;;;21.59;100.00
54882;BME280;40775;51.448;4.742;2023-08-01T08:48:57;100038.91;;;21.63;100.00
54882;BME280;40775;51.448;4.742;2023-08-01T08:51:26;100043.38;;;21.63;100.00
54882;BME280;40775;51.448;4.742;2023-08-01T08:53:56;100038.81;;;21.66;100.00
54882;BME280;40775;51.448;4.742;2023-08-01T08:56:28;100044.38;;;21.60;100.00
54882;BME280;40775;51.448;4.742;2023-08-01T08:58:56;100043.59;;;21.56;100.00
54882;BME280;40775;51.448;4.742;2023-08-01T09:01:23;100035.59;;;21.56;100.00
54882;BME280;40775;51.448;4.742;2023-08-01T09:03:50;100041.81;;;21.57;100.00
54882;BME280;40775;51.448;4.742;2023-08-01T09:06:28;100042.63;;;21.59;100.00
54882;BME280;40775;51.448;4.742;2023-08-01T09:09:03;100046.00;;;21.64;100.00
54882;BME280;40775;51.448;4.742;2023-08-01T09:11:51;100041.69;;;21.60;100.00
54882;BME280;40775;51.448;4.742;2023-08-01T09:14:19;100034.53;;;21.60;100.00
54882;BME280;40775;51.448;4.742;2023-08-01T09:16:46;100042.50;;;21.62;100.00
54882;BME280;40775;51.448;4.742;2023-08-01T09:19:23;100042.56;;;21.60;100.00
54882;BME280;40775;51.448;4.742;2023-08-01T09:21:50;100035.41;;;21.61;100.00
54882;BME280;40775;51.448;4.742;2023-08-01T09:24:20;100031.06;;;21.58;100.00
54882;BME280;40775;51.448;4.742;2023-08-01T09:26:48;100041.81;;;21.57;100.00
54882;BME280;40775;51.448;4.742;2023-08-01T09:29:17;100039.94;;;21.59;100.00
54882;BME280;40775;51.448;4.742;2023-08-01T09:31:44;100042.56;;;21.60;100.00
54882;BME280;40775;51.448;4.742;2023-08-01T09:34:26;100039.78;;;21.64;100.00
54882;BME280;40775;51.448;4.742;2023-08-01T09:37:00;100046.09;;;21.61;100.00
54882;BME280;40775;51.448;4.742;2023-08-01T09:39:27;100044.31;;;21.62;100.00
54882;BME280;40775;51.448;4.742;2023-08-01T09:41:56;100051.34;;;21.64;100.00
54882;BME280;40775;51.448;4.742;2023-08-01T09:44:26;100038.91;;;21.63;100.00
54882;BME280;40775;51.448;4.742;2023-08-01T09:47:04;100042.34;;;21.67;100.00
54882;BME280;40775;51.448;4.742;2023-08-01T09:49:33;100043.34;;;21.64;100.00
54882;BME280;40775;51.448;4.742;2023-08-01T09:52:02;100050.25;;;21.70;100.00
54882;BME280;40775;51.448;4.742;2023-08-01T09:54:29;100038.69;;;21.69;100.00
54882;BME280;40775;51.448;4.742;2023-08-01T09:56:56;100048.56;;;21.67;100.00
54882;BME280;40775;51.448;4.742;2023-08-01T09:59:26;100049.25;;;21.72;100.00
54882;BME280;40775;51.448;4.742;2023-08-01T10:01:54;100053.72;;;21.72;100.00
54882;BME280;40775;51.448;4.742;2023-08-01T10:04:30;100049.13;;;21.75;100.00
54882;BME280;40775;51.448;4.742;2023-08-01T10:07:11;100067.78;;;21.77;100.00
54882;BME280;40775;51.448;4.742;2023-08-01T10:09:40;100047.41;;;21.74;100.00
54882;BME280;40775;51.448;4.742;2023-08-01T10:12:08;100055.47;;;21.73;100.00
54882;BME280;40775;51.448;4.742;2023-08-01T10:14:36;100048.25;;;21.75;100.00
54882;BME280;40775;51.448;4.742;2023-08-01T10:17:04;100057.97;;;21.77;100.00
54882;BME280;40775;51.448;4.742;2023-08-01T10:19:32;100062.25;;;21.81;100.00
54882;BME280;40775;51.448;4.742;2023-08-01T10:22:04;100061.88;;;21.90;100.00
54882;BME280;40775;51.448;4.742;2023-08-01T10:24:33;100079.72;;;21.90;100.00
54882;BME280;40775;51.448;4.742;2023-08-01T10:27:14;100073.50;;;21.89;100.00
54882;BME280;40775;51.448;4.742;2023-08-01T10:29:42;100076.50;;;21.82;100.00
54882;BME280;40775;51.448;4.742;2023-08-01T10:32:10;100090.97;;;22.00;100.00
54882;BME280;40775;51.448;4.742;2023-08-01T10:34:38;100084.34;;;22.10;100.00
54882;BME280;40775;51.448;4.742;2023-08-01T10:37:05;100079.41;;;21.99;100.00
54882;BME280;40775;51.448;4.742;2023-08-01T10:39:32;100077.03;;;21.92;100.00
54882;BME280;40775;51.448;4.742;2023-08-01T10:42:01;100089.53;;;21.89;100.00
54882;BME280;40775;51.448;4.742;2023-08-01T10:44:29;100088.63;;;22.14;100.00
54882;BME280;40775;51.448;4.742;2023-08-01T10:47:01;100050.25;;;21.93;100.00
54882;BME280;40775;51.448;4.742;2023-08-01T10:49:41;100055.22;;;22.02;100.00
54882;BME280;40775;51.448;4.742;2023-08-01T10:52:23;100057.88;;;22.26;100.00
54882;BME280;40775;51.448;4.742;2023-08-01T10:55:03;100068.78;;;22.21;100.00
54882;BME280;40775;51.448;4.742;2023-08-01T10:57:36;100076.22;;;22.35;100.00
54882;BME280;40775;51.448;4.742;2023-08-01T11:00:05;100048.88;;;22.28;100.00
54882;BME280;40775;51.448;4.742;2023-08-01T11:02:36;100061.97;;;22.34;100.00
54882;BME280;40775;51.448;4.742;2023-08-01T11:05:07;100070.31;;;22.48;100.00
54882;BME280;40775;51.448;4.742;2023-08-01T11:07:34;100050.59;;;22.51;100.00
54882;BME280;40775;51.448;4.742;2023-08-01T11:10:10;100058.91;;;22.43;100.00
54882;BME280;40775;51.448;4.742;2023-08-01T11:12:42;100066.59;;;22.52;100.00
54882;BME280;40775;51.448;4.742;2023-08-01T11:15:11;100069.41;;;22.49;100.00
54882;BME280;40775;51.448;4.742;2023-08-01T11:17:40;100076.72;;;22.44;100.00
54882;BME280;40775;51.448;4.742;2023-08-01T11:20:10;100082.44;;;22.35;100.00
54882;BME280;40775;51.448;4.742;2023-08-01T11:22:53;100081.69;;;22.32;100.00
54882;BME280;40775;51.448;4.742;2023-08-01T11:25:43;100077.72;;;22.42;100.00
54882;BME280;40775;51.448;4.742;2023-08-01T11:28:15;100075.72;;;22.25;100.00
54882;BME280;40775;51.448;4.742;2023-08-01T11:30:42;100065.84;;;22.49;100.00
54882;BME280;40775;51.448;4.742;2023-08-01T11:33:24;100082.44;;;22.57;100.00
54882;BME280;40775;51.448;4.742;2023-08-01T11:35:52;100074.22;;;22.40;100.00
54882;BME280;40775;51.448;4.742;2023-08-01T11:38:28;100097.00;;;22.50;100.00
54882;BME280;40775;51.448;4.742;2023-08-01T11:41:04;100068.75;;;22.65;100.00
54882;BME280;40775;51.448;4.742;2023-08-01T11:43:43;100072.81;;;22.73;100.00
54882;BME280;40775;51.448;4.742;2023-08-01T11:46:10;100057.91;;;22.68;100.00
54882;BME280;40775;51.448;4.742;2023-08-01T11:48:37;100072.09;;;22.70;100.00
54882;BME280;40775;51.448;4.742;2023-08-01T11:51:05;100083.94;;;22.64;100.00
54882;BME280;40775;51.448;4.742;2023-08-01T11:53:32;100085.94;;;22.81;100.00
54882;BME280;40775;51.448;4.742;2023-08-01T11:56:05;100070.75;;;22.81;100.00
54882;BME280;40775;51.448;4.742;2023-08-01T11:58:41;100060.50;;;22.91;100.00
54882;BME280;40775;51.448;4.742;2023-08-01T12:01:13;100079.69;;;22.80;100.00
54882;BME280;40775;51.448;4.742;2023-08-01T12:03:50;100079.66;;;22.82;100.00
54882;BME280;40775;51.448;4.742;2023-08-01T12:06:19;100066.69;;;23.13;100.00
54882;BME280;40775;51.448;4.742;2023-08-01T12:08:48;100066.41;;;23.20;100.00
54882;BME280;40775;51.448;4.742;2023-08-01T12:11:27;100064.28;;;23.07;100.00
54882;BME280;40775;51.448;4.742;2023-08-01T12:14:09;100063.22;;;23.11;100.00
54882;BME280;40775;51.448;4.742;2023-08-01T12:16:44;100081.28;;;23.06;100.00
54882;BME280;40775;51.448;4.742;2023-08-01T12:19:17;100104.00;;;22.96;100.00
54882;BME280;40775;51.448;4.742;2023-08-01T12:21:45;100117.97;;;23.04;100.00
54882;BME280;40775;51.448;4.742;2023-08-01T12:24:12;100104.69;;;23.22;100.00
54882;BME280;40775;51.448;4.742;2023-08-01T12:26:39;100093.84;;;23.25;100.00
54882;BME280;40775;51.448;4.742;2023-08-01T12:29:07;100090.13;;;23.29;100.00
54882;BME280;40775;51.448;4.742;2023-08-01T12:31:34;100087.31;;;23.11;100.00
54882;BME280;40775;51.448;4.742;2023-08-01T12:34:01;100096.06;;;23.15;100.00
54882;BME280;40775;51.448;4.742;2023-08-01T12:36:29;100116.28;;;23.02;100.00
54882;BME280;40775;51.448;4.742;2023-08-01T12:38:56;100084.84;;;23.07;100.00
54882;BME280;40775;51.448;4.742;2023-08-01T12:41:23;100092.66;;;23.11;100.00
54882;BME280;40775;51.448;4.742;2023-08-01T12:43:50;100089.56;;;23.00;100.00
54882;BME280;40775;51.448;4.742;2023-08-01T12:46:17;100100.41;;;23.18;100.00
54882;BME280;40775;51.448;4.742;2023-08-01T12:48:45;100097.09;;;23.33;100.00
54882;BME280;40775;51.448;4.742;2023-08-01T12:51:12;100091.91;;;23.28;100.00
54882;BME280;40775;51.448;4.742;2023-08-01T12:53:41;100070.53;;;23.47;100.00